Portada
METAR-TAF:

METAR-TAF

Aeroports :

Arnhem, Països Baixos

latitud: 52-04N, longitud: 005-53E, altitud: 48 m

Observació

L'informe es va fer fa 15 minuts, a les 08:55 UTC
Vent 4 kt del Est/Sud-Est, variant entre Est/Sud-Est i Sud/Sud-Oest
Temperatura 3°C
Humitat 100%
Pressió 1033 hPa
Visibilitat: 0200 m
boira

METAR: EHDL 230855Z AUTO 12004KT 110V210 0200 FG VV000 03/03 Q1033 RED

Hora: 10:10 (09:10 UTC)

Pronòstic

L'informe es va fer fa 19 hores i 12 minuts, a les 13:58 UTC
Pronòstic vàlid del 22 a les 14 UTC al 23 a les 02 UTC
Vent 3 kt del Oest/Sud-Oest
Visibilitat: 0400 m
Cel ennuvolat a una alçada de 100 ft
boira
Probabilitat 40% :
Temporalment
l' 22 a les 10 UTC al 23 a les 02 UTC
Visibilitat: 1200 m
Cel ennuvolat a una alçada de 200 ft
boirina

TAF: EHDL 221358Z 2214/2302 25003KT 0400 FG BKN001 PROB40 TEMPO 2210/2302 1200 BR BKN002

Observacions i pronòstics meteorològics de més de 4000 aeroports (METAR i TAF).

Les estacions disponibles són els punts grocs i vermells al mapa.

Posi el ratolí al punt desitjat per veure el nom de l'estació.

Feu clic per veure les observacions i els pronòstics meteorològics.

Per canviar el mapa: feu clic els botons verds amb una creu de color negre per apropar; al botó verd amb un guió per allunyar la imatge; o en les fletxes verdes per a mapes adjacents.


METAR-TAF: